Terminal Aerodrome Forecast
Issued by NWS

Home | Current Version | Previous Version | Text Only | Print | Product List | Glossary On
Versions: 1 2 3 4 5 6 7 8 9 10 11 12 13 14 15 16 17 18 19 20 21 22 23 24 25 26 27 28
570
FTUS41 KBOX 131122
TAFACK
TAF
KACK 131122Z 1312/1412 32012G19KT P6SM VCSH OVC060
     FM131500 31018KT P6SM BKN060
     FM131900 31022G29KT P6SM BKN035
     FM132100 30022G31KT P6SM SCT035
     FM140200 30025G41KT P6SM VCSH BKN030=

USA.gov is the U.S. government's official web portal to all federal, state and local government web resources and services.